• Join FlightAware (Why Join?)
  • Login
  • US Flag 
05:11AM EST


 

Airport Tracker/Info


-or-


 

Live Flight TrackerFlight Track Log ✈ N789EX ✈ 23-Apr-2014 ✈ KBFI - KBFI

Flight Track Log - Related Links

Times and Time Zones

All times are in EDT time to prevent confusion due to time zone crossing. See the N789EX flight status page for this flight to view local times or setup timezone preferences in your user account.

Time Position Orientation Groundspeed Altitude Reporting Facility
EDT Latitude Longitude Course Direction KTS MPH feet Rate Location/Type
05:25PM 47.4991 -122.2720 144° Southeast 175 201 1,700  Level FlightAware ADS-B
05:25PM 47.4925 -122.2640 144° Southeast 183 211 2,100 1,800 Climbing FlightAware ADS-B
05:25PM 47.4843 -122.2560 146° Southeast 201 231 2,300 1,020 Climbing FlightAware ADS-B
05:25PM 47.4747 -122.2460 146° Southeast 220 253 2,500 1,500 Climbing FlightAware ADS-B
05:25PM 47.4645 -122.2360 145° Southeast 232 267 2,900 2,460 Climbing FlightAware ADS-B
05:26PM 47.4533 -122.2250 146° Southeast 235 270 3,500 3,060 Climbing FlightAware ADS-B
05:26PM 47.4398 -122.2120 147° Southeast 237 273 4,300 3,120 Climbing FlightAware ADS-B
05:26PM 47.4368 -122.2090 149° Southeast 237 273 4,500 2,520 Climbing FlightAware ADS-B
05:26PM 47.4339 -122.2070 153° Southeast 238 274 4,600 3,000 Climbing FlightAware ADS-B
05:26PM 47.4302 -122.2040 160° South 239 275 4,800 3,000 Climbing FlightAware ADS-B
05:26PM 47.4268 -122.2030 165° South 238 274 4,900 2,520 Climbing FlightAware ADS-B
05:26PM 47.4234 -122.2020 169° South 239 275 5,100 3,000 Climbing FlightAware ADS-B
05:26PM 47.4181 -122.2010 173° South 240 276 5,300 2,580 Climbing FlightAware ADS-B
05:26PM 47.4051 -122.1990 176° South 245 282 5,800 1,500 Climbing FlightAware ADS-B
05:27PM 47.3875 -122.1970 176° South 250 288 6,000 840 Climbing FlightAware ADS-B
05:27PM 47.3724 -122.1950 175° South 252 290 6,200 840 Climbing FlightAware ADS-B
05:27PM 47.3551 -122.1930 174° South 251 289 6,400 900 Climbing FlightAware ADS-B
05:27PM 47.3495 -122.1920 177° South 250 288 6,500 1,500 Climbing FlightAware ADS-B
05:27PM 47.3460 -122.1920 182° South 249 287 6,600 960 Climbing FlightAware ADS-B
05:27PM 47.3424 -122.1930 186° South 249 287 6,600 1,980 Level FlightAware ADS-B
05:27PM 47.3390 -122.1930 192° South 247 284 6,800 3,000 Climbing FlightAware ADS-B
05:27PM 47.3342 -122.1960 199° South 246 283 7,000 2,220 Climbing FlightAware ADS-B
05:27PM 47.3305 -122.1980 207° Southwest 243 280 7,100 3,000 Climbing FlightAware ADS-B
05:27PM 47.3277 -122.2010 212° Southwest 242 278 7,300 3,960 Climbing FlightAware ADS-B
05:28PM 47.3248 -122.2040 216° Southwest 241 277 7,500 3,420 Climbing FlightAware ADS-B
05:28PM 47.3216 -122.2080 220° Southwest 242 278 7,700 3,240 Climbing FlightAware ADS-B
05:28PM 47.3157 -122.2160 223° Southwest 243 280 8,100 3,780 Climbing FlightAware ADS-B
05:28PM 47.3125 -122.2200 226° Southwest 243 280 8,400 4,260 Climbing FlightAware ADS-B
05:28PM 47.3103 -122.2240 230° Southwest 243 280 8,600 3,420 Climbing FlightAware ADS-B
05:28PM 47.3077 -122.2290 237° Southwest 243 280 8,800 3,000 Climbing FlightAware ADS-B
05:28PM 47.3058 -122.2340 242° Southwest 243 280 9,000 3,420 Climbing FlightAware ADS-B
05:28PM 47.3044 -122.2400 250° West 244 281 9,200 3,720 Climbing FlightAware ADS-B
05:28PM 47.3031 -122.2470 257° West 244 281 9,500 4,500 Climbing FlightAware ADS-B
05:28PM 47.3025 -122.2520 261° West 244 281 9,800 4,980 Climbing FlightAware ADS-B
05:28PM 47.3021 -122.2580 265° West 245 282 10,000 3,660 Climbing FlightAware ADS-B
05:28PM 47.3014 -122.2880 269° West 248 285 11,100 3,660 Climbing FlightAware ADS-B
05:29PM 47.3011 -122.3400 269° West 253 291 13,000 3,540 Climbing FlightAware ADS-B
05:29PM 47.3012 -122.3360 269° West 253 291 13,000 3,180 Level FlightAware ADS-B (CYVR)
05:29PM 47.3002 -122.3930 268° West 259 298 14,600 2,160 Climbing FlightAware ADS-B
05:30PM 47.2983 -122.4440 266° West 268 308 15,100 1,920 Climbing FlightAware ADS-B
05:30PM 47.2966 -122.4861 269° West 262 302 16,300 3,360 Climbing FlightAware ADS-B (KPFC)
05:31PM 47.2961 -122.5010 268° West 258 297 16,900 6,420 Climbing FlightAware ADS-B
05:31PM 47.2961 -122.5033 266° West 255 293 17,800 2,820 Climbing FlightAware ADS-B (CYWH)
05:31PM 47.2947 -122.5390 266° West 259 298 17,900 720 Climbing FlightAware ADS-B
05:31PM 47.2931 -122.5650 264° West 274 315 18,200 960 Climbing FlightAware ADS-B
05:31PM 47.2927 -122.5709 264° West 280 322 18,200 1,260 Level FlightAware ADS-B (CYVR)
05:31PM 47.2911 -122.5929 266° West 290 334 18,500 1,260 Climbing FlightAware ADS-B (KPFC)
05:32PM 47.2888 -122.6270 265° West 306 352 18,800 1,140 Climbing FlightAware ADS-B
05:32PM 47.2884 -122.6340 266° West 309 356 18,900 1,500 Climbing FlightAware ADS-B (KPFC)
05:32PM 47.2843 -122.6970 265° West 333 383 19,600 1,260 Climbing FlightAware ADS-B
05:32PM 47.2907 -122.5980 265° West 341 392 19,600 1,860 Level FlightAware ADS-B
05:33PM 47.2789 -122.7770 264° West 349 402 20,700 1,980 Climbing FlightAware ADS-B
05:33PM 47.2781 -122.7895 264° West 359 413 20,800 2,040 Climbing FlightAware ADS-B (CYWH)
05:33PM 47.2744 -122.8419 265° West 363 418 21,600 2,460 Climbing FlightAware ADS-B (KPFC)
05:33PM 47.2737 -122.8520 264° West 364 419 21,800 2,400 Climbing FlightAware ADS-B
05:34PM 47.2693 -122.9148 265° West 370 426 22,800 2,340 Climbing FlightAware ADS-B (CYWH)
05:34PM 47.2681 -122.9340 265° West 370 426 23,100 2,640 Climbing FlightAware ADS-B
05:34PM 47.2658 -122.9610 259° West 372 428 23,600 2,700 Climbing FlightAware ADS-B
05:34PM 47.2616 -122.9830 253° West 374 430 24,000 2,160 Climbing FlightAware ADS-B
05:34PM 47.2611 -122.9857 252° West 375 432 24,000 2,400 Level FlightAware ADS-B (CYWH)
05:35PM 47.2429 -123.0550 248° West 376 433 25,200 2,460 Climbing FlightAware ADS-B
05:35PM 47.2421 -123.0579 248° West 376 433 25,300 2,220 Climbing FlightAware ADS-B (CYWH)
05:35PM 47.2241 -123.1232 250° West 374 430 26,300 2,220 Climbing FlightAware ADS-B (KPFC)
05:35PM 47.2227 -123.1280 249° West 378 435 26,400 1,980 Climbing FlightAware ADS-B
05:36PM 47.2042 -123.2020 250° West 381 438 27,400 1,920 Climbing FlightAware ADS-B
05:36PM 47.2038 -123.2032 250° West 381 438 27,400 1,800 Level FlightAware ADS-B (CYWH)
05:36PM 47.1855 -123.2760 250° West 387 445 28,300 1,800 Climbing FlightAware ADS-B
05:36PM 47.1852 -123.2770 250° West 387 445 28,300 1,320 Level FlightAware ADS-B (CYVR)
05:37PM 47.1665 -123.3523 250° West 395 455 29,000 1,500 Climbing FlightAware ADS-B (CYVR)
05:37PM 47.1480 -123.4274 250° West 400 460 29,800 1,620 Climbing FlightAware ADS-B (CYVR)
05:37PM 47.1362 -123.4749 250° West 402 463 30,300 1,500 Climbing FlightAware ADS-B
05:38PM 47.1278 -123.5080 250° West 404 465 30,600 1,320 Climbing FlightAware ADS-B
05:38PM 47.1165 -123.5519 249° West 407 468 31,000 1,500 Climbing FlightAware ADS-B (CYWH)
05:38PM 47.1075 -123.5860 249° West 407 468 31,400 2,160 Climbing FlightAware ADS-B
05:38PM 47.0987 -123.6202 249° West 401 461 32,100 2,760 Climbing FlightAware ADS-B (CYVR)
05:39PM 47.0859 -123.6680 248° West 396 456 32,900 3,120 Climbing FlightAware ADS-B
05:39PM 47.0787 -123.6940 247° West 388 447 33,400 2,760 Climbing FlightAware ADS-B
05:39PM 47.0777 -123.6971 247° West 386 444 33,600 2,100 Climbing FlightAware ADS-B (CYWH)
05:39PM 47.0572 -123.7670 247° West 383 441 34,500 1,800 Climbing FlightAware ADS-B
05:39PM 47.0550 -123.7748 247° West 383 441 34,500 540 Level FlightAware ADS-B (CYWH)
05:40PM 47.0355 -123.8420 247° West 390 449 34,800 600 Climbing FlightAware ADS-B
05:40PM 47.0334 -123.8494 247° West 392 451 34,800 660 Level FlightAware ADS-B (CYVR)
05:41PM 47.0112 -123.9271 248° West 397 457 35,200 660 Climbing FlightAware ADS-B (KPFC)
05:41PM 46.9959 -123.9800 247° West 399 459 35,400 780 Climbing FlightAware ADS-B
05:41PM 46.9735 -124.0580 247° West 406 467 35,900 960 Climbing FlightAware ADS-B
05:42PM 46.9659 -124.0870 251° West 406 467 36,100 660 Climbing FlightAware ADS-B
05:42PM 46.9630 -124.1010 255° West 407 468 36,100 540 Level FlightAware ADS-B
05:42PM 46.9611 -124.1160 262° West 406 467 36,200 840 Climbing FlightAware ADS-B
05:42PM 46.9607 -124.1400 273° West 406 467 36,300 420 Climbing FlightAware ADS-B
05:42PM 46.9622 -124.1530 280° West 407 468 36,300 600 Level FlightAware ADS-B
05:42PM 46.9646 -124.1660 286° West 408 470 36,400 660 Climbing FlightAware ADS-B
05:42PM 46.9650 -124.1675 300° West 418 481 36,500 180 Climbing FlightAware ADS-B
05:43PM 46.9886 -124.2310 302° West 422 486 36,500 360 Level FlightAware ADS-B
05:43PM 47.0072 -124.2745 302° West 424 488 36,700 960 Climbing FlightAware ADS-B (KPFC)
05:43PM 47.0204 -124.3050 302° West 423 487 37,000 1,320 Climbing FlightAware ADS-B
05:43PM 47.0266 -124.3201 302° West 421 484 37,100 960 Climbing FlightAware ADS-B (CYVR)
05:44PM 47.0515 -124.3790 301° West 422 486 37,500 660 Climbing FlightAware ADS-B
05:44PM 47.0260 -124.3186 302° West 422 486 37,500 180 Level FlightAware ADS-B (CYWH)
05:44PM 47.0846 -124.4580 302° West 431 496 37,600  Climbing FlightAware ADS-B
05:45PM 47.1125 -124.5234 302° West 445 512 37,500 -180 Descending FlightAware ADS-B (CYVR)
05:45PM 47.1279 -124.5600 302° West 441 507 37,500 -960 Level FlightAware ADS-B
05:45PM 47.1608 -124.6390 301° West 462 532 37,000 -900 Descending FlightAware ADS-B
05:46PM 47.1781 -124.6816 301° West 466 536 36,800 -420 Descending FlightAware ADS-B (CYWH)
05:46PM 47.1952 -124.7230 301° West 465 535 36,800 -240 Level FlightAware ADS-B
05:46PM 47.2146 -124.7708 301° West 467 537 36,700 -420 Descending FlightAware ADS-B (CYVR)
05:46PM 47.2297 -124.8080 301° West 467 537 36,600 -600 Descending FlightAware ADS-B
05:47PM 47.2511 -124.8592 301° West 469 540 36,400 -720 Descending FlightAware ADS-B (KPFC)
05:47PM 47.2576 -124.8760 300° West 468 539 36,300 1,200 Descending FlightAware ADS-B
05:47PM 47.2651 -124.9010 288° West 460 529 36,700 -960 Climbing FlightAware ADS-B
05:47PM 47.2666 -124.9156 275° West 450 518 36,100 -4,020 Descending FlightAware ADS-B (KPFC)
05:47PM 47.2646 -124.9390 259° West 447 514 35,900 -1,380 Descending FlightAware ADS-B
05:47PM 47.2640 -124.9419 255° West 446 513 35,900  Level FlightAware ADS-B (KPFC)
05:47PM 47.2565 -124.9748 252° West 446 513 35,900 300 Level FlightAware ADS-B (KPFC)
05:47PM 47.2502 -125.0028 252° West 442 509 36,000 660 Climbing FlightAware ADS-B
05:48PM 47.2451 -125.0260 252° West 443 510 36,100 540 Climbing FlightAware ADS-B
05:48PM 47.2307 -125.0896 252° West 443 510 36,300 360 Climbing FlightAware ADS-B (KPFC)
05:48PM 47.2258 -125.1110 252° West 443 510 36,300 300 Level FlightAware ADS-B
05:49PM 47.2072 -125.1990 253° West 446 513 36,500 180 Climbing FlightAware ADS-B
05:49PM 47.2083 -125.1929 253° West 447 514 36,400  Descending FlightAware ADS-B (KPFC)
05:49PM 47.1886 -125.2870 253° West 448 516 36,500 120 Climbing FlightAware ADS-B
05:49PM 47.1820 -125.3182 253° West 449 517 36,500  Level FlightAware ADS-B (KPFC)
05:50PM 47.1694 -125.3780 253° West 449 517 36,500 120 Level FlightAware ADS-B
05:50PM 47.1581 -125.4328 253° West 450 518 36,600  Climbing FlightAware ADS-B (KPFC)
05:50PM 47.1510 -125.4670 253° West 451 519 36,500 -600 Descending FlightAware ADS-B
05:51PM 47.1324 -125.5560 253° West 459 528 36,200 -540 Descending FlightAware ADS-B
05:51PM 47.1097 -125.6660 253° West 453 521 35,900 -480 Descending FlightAware ADS-B
05:51PM 47.1094 -125.6667 253° West 453 521 35,900 300 Level FlightAware ADS-B (KPFC)
05:52PM 47.0854 -125.7802 253° West 443 510 36,100 480 Climbing FlightAware ADS-B (KPFC)
05:52PM 47.0788 -125.8120 253° West 442 509 36,300 600 Climbing FlightAware ADS-B
05:52PM 47.0722 -125.8380 248° West 442 509 36,300  Level FlightAware ADS-B
05:52PM 47.0597 -125.8779 244° Southwest 448 516 36,300 -420 Level FlightAware ADS-B (CYVR)
05:53PM 47.0452 -125.9210 243° Southwest 453 521 36,100 -780 Descending FlightAware ADS-B
05:53PM 47.0277 -125.9680 236° Southwest 455 524 35,900 -600 Descending FlightAware ADS-B
05:53PM 47.0101 -125.9890 190° South 481 554 35,800 -2,760 Descending FlightAware ADS-B (KPFC)
05:53PM 46.9862 -125.9910 170° South 502 578 34,900 -6,000 Descending FlightAware ADS-B
05:53PM 46.9812 -125.9892 166° South 501 577 34,900  Level FlightAware ADS-B (KPFC)
05:54PM 46.9599 -125.9813 166° South 508 585 34,900 180 Level FlightAware ADS-B (KPFC)
05:54PM 46.9117 -125.9630 166° South 508 585 35,000 840 Climbing FlightAware ADS-B
05:54PM 46.8435 -125.9370 165° South 503 579 35,600 1,320 Climbing FlightAware ADS-B
05:55PM 46.8345 -125.9340 165° South 501 577 35,900 780 Climbing FlightAware ADS-B (KPFC)
05:55PM 46.7621 -125.9070 165° South 505 581 36,100 600 Climbing FlightAware ADS-B
05:55PM 46.7309 -125.8946 165° South 508 585 36,300 360 Climbing FlightAware ADS-B (KPFC)
05:56PM 46.6899 -125.8790 165° South 510 587 36,300 300 Level FlightAware ADS-B
05:56PM 46.6540 -125.8580 154° Southeast 522 601 36,500 540 Climbing FlightAware ADS-B
05:56PM 46.6472 -125.8522 149° Southeast 529 609 36,500  Level FlightAware ADS-B (KPFC)
05:56PM 46.6332 -125.8390 146° Southeast 533 613 36,500  Level FlightAware ADS-B
05:56PM 46.6124 -125.8130 135° Southeast 545 627 36,500  Level FlightAware ADS-B
05:56PM 46.6046 -125.8004 130° Southeast 551 634 36,500  Level FlightAware ADS-B (KPFC)
05:56PM 46.6015 -125.7950 129° Southeast 552 635 36,500  Level FlightAware ADS-B
05:56PM 46.5865 -125.7600 117° Southeast 563 648 36,500  Level FlightAware ADS-B
05:57PM 46.5795 -125.7344 108° East 570 656 36,500  Level FlightAware ADS-B (KPFC)
05:57PM 46.5771 -125.7230 106° East 571 657 36,500  Level FlightAware ADS-B
05:57PM 46.5739 -125.6960 98° East 575 662 36,500  Level FlightAware ADS-B
05:57PM 46.5733 -125.6861 94° East 576 663 36,500  Level FlightAware ADS-B (KPFC)
05:57PM 46.5732 -125.6690 90° East 578 665 36,500  Level FlightAware ADS-B
05:57PM 46.5733 -125.6846 93° East 577 664 36,500 -480 Level FlightAware ADS-B
05:57PM 46.5787 -125.6190 80° East 579 666 36,400 -480 Descending FlightAware ADS-B
05:57PM 46.5808 -125.6097 72° East 581 669 36,400 -720 Level FlightAware ADS-B (KPFC)
05:57PM 46.5880 -125.5850 66° East 580 667 36,300 -840 Descending FlightAware ADS-B
05:57PM 46.5976 -125.5610 57° Northeast 576 663 36,200 -600 Descending FlightAware ADS-B
05:57PM 46.6019 -125.5518 53° Northeast 568 654 36,200 -600 Level FlightAware ADS-B (KPFC)
05:58PM 46.6171 -125.5260 47° Northeast 570 656 36,100 -600 Descending FlightAware ADS-B
05:58PM 46.6588 -125.4734 40° Northeast 570 656 35,900 -1,200 Descending FlightAware ADS-B (KPFC)
05:58PM 46.6772 -125.4510 40° Northeast 577 664 35,500 -2,040 Descending FlightAware ADS-B
05:58PM 46.7192 -125.4014 39° Northeast 593 682 34,900 -1,800 Descending FlightAware ADS-B (CYVR)
05:59PM 46.7417 -125.3750 39° Northeast 591 680 34,600 -840 Descending FlightAware ADS-B
05:59PM 46.7721 -125.3435 28° Northeast 574 661 34,600 -300 Level FlightAware ADS-B
05:59PM 46.7739 -125.3421 15° North 557 641 34,500 -3,480 Descending FlightAware ADS-B (KPFC)
05:59PM 46.8191 -125.3410 332° Northwest 472 543 33,400 -4,020 Descending FlightAware ADS-B
05:59PM 46.8257 -125.3490 321° Northwest 455 524 33,300 1,260 Descending FlightAware ADS-B
06:00PM 46.8551 -125.3884 317° Northwest 443 510 33,900 1,800 Climbing FlightAware ADS-B (KPFC)
06:00PM 46.8710 -125.4100 317° Northwest 442 509 34,200 900 Climbing FlightAware ADS-B
06:00PM 46.9133 -125.4680 317° Northwest 448 516 34,500 720 Climbing FlightAware ADS-B
06:00PM 46.9166 -125.4722 318° Northwest 450 518 34,600 480 Climbing FlightAware ADS-B (KPFC)
06:01PM 46.9517 -125.5160 321° Northwest 458 527 34,700 540 Climbing FlightAware ADS-B
06:01PM 46.9711 -125.5370 325° Northwest 462 532 34,900 840 Climbing FlightAware ADS-B
06:01PM 47.0247 -125.5890 327° Northwest 467 537 35,300 780 Climbing FlightAware ADS-B
06:02PM 47.0488 -125.6117 327° Northwest 470 541 35,500 780 Climbing FlightAware ADS-B (KPFC)
06:02PM 47.0798 -125.6410 327° Northwest 469 540 35,700 540 Climbing FlightAware ADS-B
06:02PM 47.1243 -125.6831 327° Northwest 474 545 35,900 360 Climbing FlightAware ADS-B (KPFC)
06:02PM 47.1346 -125.6930 327° Northwest 474 545 35,900 540 Level FlightAware ADS-B
06:03PM 47.1900 -125.7460 327° Northwest 476 548 36,200 600 Climbing FlightAware ADS-B
06:03PM 47.2005 -125.7553 328° Northwest 476 548 36,300 780 Climbing FlightAware ADS-B (KPFC)
06:03PM 47.2461 -125.7980 328° Northwest 476 548 36,600 420 Climbing FlightAware ADS-B
06:04PM 47.3026 -125.8510 328° Northwest 482 555 36,700 120 Climbing FlightAware ADS-B
06:04PM 47.3072 -125.8548 329° Northwest 485 558 36,700 300 Level FlightAware ADS-B (CYVR)
06:04PM 47.3409 -125.8830 332° Northwest 489 563 36,800 180 Climbing FlightAware ADS-B
06:04PM 47.3735 -125.9049 336° Northwest 494 568 36,800  Level FlightAware ADS-B (CYVR)
06:04PM 47.3824 -125.9100 338° Northwest 496 571 36,800  Level FlightAware ADS-B
06:05PM 47.4482 -125.9440 343° North 503 579 36,800  Level FlightAware ADS-B
06:05PM 47.4603 -125.9497 343° North 503 579 36,800  Level FlightAware ADS-B (CYVR)
06:05PM 47.4963 -125.9658 344° North 503 579 36,800  Level FlightAware ADS-B (KPFC)
06:05PM 47.5159 -125.9740 343° North 503 579 36,800  Level FlightAware ADS-B
06:06PM 47.5101 -125.9718 344° North 504 580 36,800  Level FlightAware ADS-B (CYVR)
06:06PM 47.5842 -126.0040 344° North 505 581 36,800 -1,380 Level FlightAware ADS-B
06:06PM 47.6528 -126.0320 344° North 509 586 36,000 -1,320 Descending FlightAware ADS-B
06:07PM 47.7068 -126.0540 347° North 506 582 35,600 -720 Descending FlightAware ADS-B
06:07PM 47.7141 -126.0560 346° North 498 573 35,700 900 Climbing FlightAware ADS-B (KPFC)
06:07PM 47.7517 -126.0630 356° North 518 596 35,900 600 Climbing FlightAware ADS-B
06:07PM 47.7613 -126.0633 359° North 521 600 35,900  Level FlightAware ADS-B (KPFC)
06:07PM 47.7661 -126.0630 360° North 522 601 35,900 720 Level FlightAware ADS-B
06:07PM 47.7802 -126.0620 North 526 605 36,000 1,020 Climbing FlightAware ADS-B
06:08PM 47.8068 -126.0560 12° North 533 613 36,200 960 Climbing FlightAware ADS-B
06:08PM 47.8396 -126.0390 23° Northeast 543 625 36,400 600 Climbing FlightAware ADS-B
06:08PM 47.8508 -126.0299 31° Northeast 550 633 36,400 360 Level FlightAware ADS-B (KPFC)
06:08PM 47.8713 -126.0100 34° Northeast 552 635 36,500 660 Climbing FlightAware ADS-B
06:09PM 47.9254 -125.9523 38° Northeast 551 634 36,800 600 Climbing FlightAware ADS-B (CYVR)
06:09PM 47.9334 -125.9430 38° Northeast 551 634 36,800 600 Level FlightAware ADS-B
06:09PM 47.9828 -125.8770 46° Northeast 554 638 37,100 660 Climbing FlightAware ADS-B
06:09PM 47.9979 -125.8525 50° Northeast 551 634 37,200 540 Climbing FlightAware ADS-B (KPFC)
06:09PM 48.0190 -125.8130 53° Northeast 558 642 37,300 600 Climbing FlightAware ADS-B
06:10PM 48.0394 -125.7650 60° Northeast 557 641 37,500 660 Climbing FlightAware ADS-B
06:10PM 48.0525 -125.7250 66° East 558 642 37,600 300 Climbing FlightAware ADS-B
06:10PM 48.0596 -125.6960 72° East 560 644 37,600  Level FlightAware ADS-B
06:10PM 48.0643 -125.6714 75° East 562 647 37,600 -240 Level FlightAware ADS-B (CYVR)
06:10PM 48.0807 -125.5820 75° East 567 652 37,500 -1,020 Descending FlightAware ADS-B
06:11PM 48.0859 -125.5542 75° East 573 659 37,100 -2,940 Descending FlightAware ADS-B (KPFC)
06:11PM 48.1027 -125.4620 75° East 580 667 36,000 -2,580 Descending FlightAware ADS-B
06:11PM 48.1097 -125.4220 77° East 582 670 35,600 -3,480 Descending FlightAware ADS-B
06:11PM 48.1089 -125.4276 80° East 581 669 35,200 -5,040 Descending FlightAware ADS-B (CYVR)
06:11PM 48.1116 -125.3980 86° East 578 665 35,100 -960 Descending FlightAware ADS-B
06:11PM 48.1113 -125.3580 93° East 572 658 35,000 660 Descending FlightAware ADS-B
06:12PM 48.1088 -125.3320 101° East 563 648 35,300 1,980 Climbing FlightAware ADS-B
06:12PM 48.1052 -125.3120 107° East 557 641 35,400 1,620 Climbing FlightAware ADS-B
06:12PM 48.1000 -125.2910 112° Southeast 553 636 35,600 1,680 Climbing FlightAware ADS-B
06:12PM 48.1020 -125.2979 112° Southeast 553 636 35,600 540 Level FlightAware ADS-B (CYVR)
06:12PM 48.0867 -125.2553 124° Southeast 544 626 35,700 1,080 Climbing FlightAware ADS-B (CYVR)
06:12PM 48.0853 -125.2520 124° Southeast 544 626 35,800 1,320 Climbing FlightAware ADS-B
06:12PM 48.0721 -125.2270 131° Southeast 539 620 35,900 540 Climbing FlightAware ADS-B (CYVR)
06:12PM 48.0681 -125.2200 132° Southeast 539 620 35,900 660 Level FlightAware ADS-B
06:12PM 48.0431 -125.1850 139° Southeast 534 615 36,100 960 Climbing FlightAware ADS-B
06:12PM 48.0212 -125.1590 144° Southeast 529 609 36,300 780 Climbing FlightAware ADS-B
06:13PM 47.9997 -125.1358 146° Southeast 530 610 36,400 420 Climbing FlightAware ADS-B (KPFC)
06:13PM 47.9928 -125.1290 147° Southeast 530 610 36,400 240 Level FlightAware ADS-B
06:13PM 47.9539 -125.0990 158° South 523 602 36,500  Climbing FlightAware ADS-B
06:13PM 47.9268 -125.0870 166° South 517 595 36,400 -360 Descending FlightAware ADS-B
06:13PM 47.9099 -125.0830 172° South 513 590 36,400  Level FlightAware ADS-B
06:14PM 47.8851 -125.0820 181° South 505 581 36,400  Level FlightAware ADS-B
06:14PM 47.8921 -125.0815 183° South 503 579 36,400 -240 Level FlightAware ADS-B (CYWH)
06:14PM 47.8154 -125.0950 188° South 502 578 36,300 -300 Descending FlightAware ADS-B
06:14PM 47.7864 -125.1012 188° South 506 582 36,200 -1,020 Descending FlightAware ADS-B (KPFC)
06:15PM 47.7455 -125.1100 188° South 497 572 35,800 -1,440 Descending FlightAware ADS-B
06:15PM 47.7333 -125.1123 189° South 494 568 35,600 -1,680 Descending FlightAware ADS-B (CYWH)
06:15PM 47.7198 -125.1160 191° South 490 564 35,500 -3,300 Descending FlightAware ADS-B
06:15PM 47.7092 -125.1206 206° Southwest 470 541 35,000 -3,180 Descending FlightAware ADS-B (CYVR)
06:15PM 47.6877 -125.1463 234° Southwest 442 509 34,500 -4,800 Descending FlightAware ADS-B (CYVR)
06:15PM 47.6842 -125.1580 247° West 434 499 33,800 -3,000 Descending FlightAware ADS-B
06:15PM 47.6795 -125.1821 254° West 415 478 33,900 1,080 Climbing FlightAware ADS-B (KPFC)
06:16PM 47.6667 -125.2480 254° West 414 476 34,400 960 Climbing FlightAware ADS-B
06:16PM 47.6641 -125.2615 254° West 416 479 34,400  Level FlightAware ADS-B (KPFC)
06:16PM 47.6504 -125.3340 255° West 426 490 34,400 180 Level FlightAware ADS-B
06:16PM 47.6479 -125.3473 255° West 427 491 34,500 480 Climbing FlightAware ADS-B (KPFC)
06:17PM 47.6383 -125.4000 255° West 427 491 34,600 360 Climbing FlightAware ADS-B
06:17PM 47.6327 -125.4260 251° West 427 491 34,700 360 Climbing FlightAware ADS-B
06:17PM 47.6300 -125.4362 244° Southwest 429 494 34,700  Level FlightAware ADS-B (CYVR)
06:17PM 47.6262 -125.4480 243° Southwest 430 495 34,700 660 Level FlightAware ADS-B
06:17PM 47.6175 -125.4670 234° Southwest 435 501 34,800 840 Climbing FlightAware ADS-B
06:17PM 47.6083 -125.4810 225° Southwest 441 507 34,900 780 Climbing FlightAware ADS-B
06:17PM 47.5955 -125.4960 214° Southwest 450 518 35,000 660 Climbing FlightAware ADS-B
06:17PM 47.5990 -125.4924 211° Southwest 452 520 35,000 660 Level FlightAware ADS-B (KPFC)
06:17PM 47.5789 -125.5080 202° Southwest 461 531 35,100 360 Climbing FlightAware ADS-B
06:17PM 47.5646 -125.5150 196° South 468 539 35,100 600 Level FlightAware ADS-B
06:18PM 47.5582 -125.5170 194° South 470 541 35,200 600 Climbing FlightAware ADS-B (CYVR)
06:18PM 47.4993 -125.5340 191° South 475 547 35,400 540 Climbing FlightAware ADS-B
06:18PM 47.4691 -125.5422 191° South 475 547 35,600 720 Climbing FlightAware ADS-B (KPFC)
06:19PM 47.4334 -125.5530 191° South 474 545 35,800 660 Climbing FlightAware ADS-B
06:19PM 47.3922 -125.5645 191° South 472 543 36,000 720 Climbing FlightAware ADS-B (KPFC)
06:19PM 47.3666 -125.5720 191° South 470 541 36,200 720 Climbing FlightAware ADS-B
06:19PM 47.3259 -125.5840 190° South 466 536 36,400 660 Climbing FlightAware ADS-B
06:19PM 47.3114 -125.5870 188° South 468 539 36,500 540 Climbing FlightAware ADS-B
06:20PM 47.2560 -125.5960 186° South 475 547 36,700 360 Climbing FlightAware ADS-B (CYVR)
06:20PM 47.2402 -125.5980 186° South 476 548 36,700  Level FlightAware ADS-B
06:21PM 47.1723 -125.6080 186° South 480 552 36,700  Level FlightAware ADS-B
06:21PM 47.1679 -125.6090 186° South 472 543 36,700  Level FlightAware ADS-B (KPFC)
06:21PM 47.1055 -125.6180 186° South 481 554 36,700  Level FlightAware ADS-B
06:21PM 47.0794 -125.6221 186° South 481 554 36,700  Level FlightAware ADS-B (KPFC)
06:22PM 47.0333 -125.6290 185° South 481 554 36,700  Level FlightAware ADS-B
06:22PM 47.0081 -125.6319 185° South 481 554 36,700  Level FlightAware ADS-B (KPFC)
06:22PM 46.9662 -125.6370 185° South 478 550 36,700  Level FlightAware ADS-B
06:22PM 46.9429 -125.6404 185° South 477 549 36,700  Level FlightAware ADS-B (KPFC)
06:23PM 46.9000 -125.6460 185° South 477 549 36,700  Level FlightAware ADS-B
06:23PM 46.8762 -125.6491 185° South 472 543 36,700  Level FlightAware ADS-B (KPFC)
06:23PM 46.8336 -125.6550 185° South 483 556 36,700 180 Level FlightAware ADS-B
06:23PM 46.8092 -125.6582 185° South 484 557 36,800 180 Climbing FlightAware ADS-B (KPFC)
06:24PM 46.7617 -125.6650 185° South 488 562 36,800 -180 Level FlightAware ADS-B
06:24PM 46.7334 -125.6686 186° South 482 555 36,700 -1,620 Descending FlightAware ADS-B (KPFC)
06:24PM 46.6945 -125.6740 185° South 485 558 36,000 -2,340 Descending FlightAware ADS-B
06:24PM 46.6523 -125.6800 187° South 476 548 35,300 -1,980 Descending FlightAware ADS-B
06:25PM 46.6354 -125.6868 204° Southwest 451 519 35,100 -3,600 Descending FlightAware ADS-B (KPFC)
06:25PM 46.6246 -125.6980 207° Southwest 447 514 34,400 -5,340 Descending FlightAware ADS-B
06:25PM 46.6210 -125.7040 229° Southwest 421 484 34,300 -1,500 Descending FlightAware ADS-B
06:25PM 46.6164 -125.7170 243° Southwest 412 474 34,200 -1,500 Descending FlightAware ADS-B
06:25PM 46.6109 -125.7342 246° West 414 476 34,000 240 Descending FlightAware ADS-B (KPFC)
06:25PM 46.5999 -125.7710 247° West 413 475 34,300 1,020 Climbing FlightAware ADS-B
06:26PM 46.5811 -125.8348 247° West 412 474 34,700 1,080 Climbing FlightAware ADS-B (KPFC)
06:26PM 46.5573 -125.9338 263° West 409 471 35,500 1,320 Climbing FlightAware ADS-B (KPFC)
06:27PM 46.5579 -125.9884 279° West 411 473 36,000 1,140 Climbing FlightAware ADS-B (KPFC)
06:27PM 46.5585 -125.9939 298° West 424 488 36,300 720 Climbing FlightAware ADS-B (KPFC)
06:27PM 46.5902 -126.0865 313° West 442 509 36,500 300 Climbing FlightAware ADS-B (KPFC)
06:28PM 46.6074 -126.1105 329° Northwest 465 535 36,500 120 Level FlightAware ADS-B (KPFC)
06:28PM 46.6479 -126.1476 345° North 488 562 36,600  Climbing FlightAware ADS-B (KPFC)
06:29PM 46.7619 -126.1712 355° North 519 597 36,500 -840 Descending FlightAware ADS-B (KPFC)
06:29PM 46.8559 -126.1817 356° North 528 608 35,500 -1,740 Descending FlightAware ADS-B (KPFC)
06:29PM 46.8807 -126.1842 North 533 613 35,100 -4,140 Descending FlightAware ADS-B (KPFC)
06:30PM 46.9000 -126.1812 17° North 554 638 34,200 -4,860 Descending FlightAware ADS-B (KPFC)
06:30PM 46.9500 -126.1278 43° Northeast 596 686 32,600 -1,560 Descending FlightAware ADS-B (KPFC)
06:30PM 46.9857 -126.0760 51° Northeast 589 678 33,200 1,260 Climbing FlightAware ADS-B (KPFC)
06:31PM 47.0160 -125.9932 73° East 602 693 33,500 1,140 Climbing FlightAware ADS-B (KPFC)
06:31PM 47.0372 -125.8461 91° East 587 676 34,400 1,620 Climbing FlightAware ADS-B (KPFC)
06:31PM 47.0371 -125.8398 104° East 573 659 34,900 1,620 Climbing FlightAware ADS-B (CYVR)
06:32PM 47.0131 -125.7192 115° Southeast 564 649 35,300 1,380 Climbing FlightAware ADS-B (KPFC)
06:32PM 46.9804 -125.6378 129° Southeast 547 629 36,000 1,260 Climbing FlightAware ADS-B (KPFC)
06:33PM 46.9509 -125.5921 144° Southeast 526 605 36,300 360 Climbing FlightAware ADS-B (KPFC)
06:33PM 46.8741 -125.5259 151° Southeast 527 606 36,400 -720 Climbing FlightAware ADS-B (KPFC)
06:34PM 46.8422 -125.4998 151° Southeast 536 617 35,600 -3,000 Descending FlightAware ADS-B
06:34PM 46.7837 -125.4531 164° South 509 586 34,400 -1,680 Descending FlightAware ADS-B (KPFC)
06:34PM 46.7276 -125.4392 178° South 472 543 34,500 660 Climbing FlightAware ADS-B (KPFC)
06:35PM 46.6541 -125.4388 183° South 471 542 35,000 1,080 Climbing FlightAware ADS-B (KPFC)
06:35PM 46.6110 -125.4464 195° South 448 516 35,500 1,380 Climbing FlightAware ADS-B (KPFC)
06:35PM 46.5772 -125.4716 219° Southwest 415 478 35,900 660 Climbing FlightAware ADS-B (KPFC)
06:36PM 46.5560 -125.5037 226° Southwest 424 488 36,000 360 Climbing FlightAware ADS-B
06:36PM 46.5157 -125.5563 206° Southwest 444 511 36,200 420 Climbing FlightAware ADS-B (KPFC)
06:36PM 46.5067 -125.5620 201° Southwest 451 519 36,200  Level FlightAware ADS-B
06:36PM 46.4876 -125.5700 192° South 463 533 36,200 -420 Level FlightAware ADS-B
06:37PM 46.4710 -125.5722 180° South 482 555 36,100 -780 Descending FlightAware ADS-B (KPFC)
06:37PM 46.4521 -125.5700 171° South 496 571 36,000 -1,080 Descending FlightAware ADS-B
06:37PM 46.4322 -125.5620 161° South 512 589 35,800 -1,500 Descending FlightAware ADS-B
06:37PM 46.4389 -125.5649 158° South 517 595 35,700 -780 Descending FlightAware ADS-B (KPFC)
06:37PM 46.4146 -125.5510 155° Southeast 522 601 35,700 -780 Level FlightAware ADS-B
06:38PM 46.3407 -125.4935 152° Southeast 507 583 35,200 -840 Descending FlightAware ADS-B (KPFC)
06:38PM 46.3391 -125.4920 151° Southeast 509 586 35,200 -1,920 Level FlightAware ADS-B
06:38PM 46.2745 -125.4410 151° Southeast 500 575 34,200 -1,860 Descending FlightAware ADS-B
06:38PM 46.2708 -125.4384 151° Southeast 500 575 34,200 -420 Level FlightAware ADS-B
06:39PM 46.2112 -125.3910 151° Southeast 506 582 34,000 -300 Descending FlightAware ADS-B
06:39PM 46.1844 -125.3696 151° Southeast 509 586 34,000  Level FlightAware ADS-B (KPFC)
06:39PM 46.1258 -125.3237 152° Southeast 512 589 34,000  Level FlightAware ADS-B
06:40PM 46.0925 -125.2980 151° Southeast 507 583 34,000  Level FlightAware ADS-B
06:40PM 46.0518 -125.2659 151° Southeast 514 592 34,000  Level FlightAware ADS-B (KPFC)
06:40PM 46.0301 -125.2490 151° Southeast 515 593 34,000  Level FlightAware ADS-B
06:40PM 45.9931 -125.2210 153° Southeast 513 590 34,000  Level FlightAware ADS-B
06:40PM 45.9829 -125.2139 157° South 506 582 34,000  Level FlightAware ADS-B (KPFC)
06:41PM 45.9592 -125.2030 165° South 493 567 34,000  Level FlightAware ADS-B
06:41PM 45.9392 -125.1968 168° South 490 564 34,000  Level FlightAware ADS-B (KPFC)
06:41PM 45.8923 -125.1820 168° South 491 565 34,000 120 Level FlightAware ADS-B
06:42PM 45.8424 -125.1670 167° South 478 550 34,100 360 Climbing FlightAware ADS-B (KPFC)
06:42PM 45.8262 -125.1620 168° South 484 557 34,200 960 Climbing FlightAware ADS-B
06:42PM 45.7606 -125.1410 167° South 481 554 34,700 960 Climbing FlightAware ADS-B
06:42PM 45.7485 -125.1372 167° South 481 554 34,800 960 Climbing FlightAware ADS-B (KPFC)
06:43PM 45.6936 -125.1190 167° South 484 557 35,200 1,020 Climbing FlightAware ADS-B
06:43PM 45.6661 -125.1106 167° South 484 557 35,500 1,020 Climbing FlightAware ADS-B (KPFC)
06:43PM 45.6204 -125.0960 168° South 482 555 35,800 900 Climbing FlightAware ADS-B
06:44PM 45.5747 -125.0818 168° South 483 556 36,100 960 Climbing FlightAware ADS-B (KPFC)
06:44PM 45.5078 -125.0613 168° South 484 557 36,700 1,020 Climbing FlightAware ADS-B
06:44PM 45.4863 -125.0550 168° South 477 549 36,800 600 Climbing FlightAware ADS-B (KPFC)
06:45PM 45.4145 -125.0360 170° South 478 550 37,100 480 Climbing FlightAware ADS-B (KPFC)
06:45PM 45.3262 -125.0141 170° South 486 559 37,400 540 Climbing FlightAware ADS-B (KPFC)
06:46PM 45.2551 -124.9967 170° South 491 565 37,800 420 Climbing FlightAware ADS-B (KPFC)
06:47PM 45.1829 -124.9794 170° South 502 578 37,900 60 Climbing FlightAware ADS-B (KPFC)
06:47PM 45.1346 -124.9675 170° South 510 587 37,900 -780 Level FlightAware ADS-B
06:48PM 44.9975 -124.9340 170° South 505 581 36,900 -1,980 Descending FlightAware ADS-B (KPFC)
06:48PM 44.9513 -124.9336 192° South 475 547 35,800 -960 Descending FlightAware ADS-B (KPFC)
06:49PM 44.8842 -124.9536 192° South 461 531 36,100 180 Climbing FlightAware ADS-B (KPFC)
06:49PM 44.8194 -124.9726 192° South 477 549 36,000  Descending FlightAware ADS-B (KPFC)
06:50PM 44.7350 -124.9976 192° South 484 557 36,100 -2,040 Climbing FlightAware ADS-B (KPFC)
06:51PM 44.6489 -125.0365 230° Southwest 438 504 33,300 -4,380 Descending FlightAware ADS-B (KPFC)
06:51PM 44.6428 -125.0921 269° West 429 494 31,800 -600 Descending FlightAware ADS-B (KPFC)
06:52PM 44.6429 -125.2025 271° West 426 490 32,700 1,620 Climbing FlightAware ADS-B (KPFC)
06:52PM 44.6442 -125.3120 271° West 411 473 34,000 1,680 Climbing FlightAware ADS-B (KPFC)
06:53PM 44.6447 -125.3573 270° West 408 470 34,300 1,800 Climbing FlightAware ADS-B (KPFC)
06:53PM 44.6461 -125.4679 271° West 398 458 35,800 1,260 Climbing FlightAware ADS-B (KPFC)
06:54PM 44.6476 -125.5691 272° West 406 467 36,100 180 Climbing FlightAware ADS-B (KPFC)
06:55PM 44.6507 -125.6810 272° West 416 479 36,100  Level FlightAware ADS-B (KPFC)
06:55PM 44.6532 -125.7870 272° West 419 482 36,100 -420 Level FlightAware ADS-B (KPFC)
06:56PM 44.6540 -125.8415 270° West 413 475 35,700 -3,240 Descending FlightAware ADS-B (KPFC)
06:56PM 44.6566 -125.9480 281° West 427 491 32,900 -4,740 Descending FlightAware ADS-B (KPFC)
06:57PM 44.6820 -125.9894 349° North 499 574 31,000 -2,700 Descending FlightAware ADS-B (KPFC)
06:57PM 44.7277 -125.9934 358° North 510 587 31,100 1,500 Climbing FlightAware ADS-B (KPFC)
06:58PM 44.8238 -125.9975 358° North 503 579 32,500 2,280 Climbing FlightAware ADS-B (KPFC)
06:58PM 44.9159 -126.0003 359° North 491 565 34,200 1,800 Climbing FlightAware ADS-B (KPFC)
06:59PM 45.0084 -126.0014 360° North 498 573 34,900 1,200 Climbing FlightAware ADS-B (KPFC)
07:00PM 45.0942 -125.9960 14° North 521 600 35,800 1,260 Climbing FlightAware ADS-B (KPFC)
07:00PM 45.1442 -125.9678 32° Northeast 546 628 36,200 600 Climbing FlightAware ADS-B (KPFC)
07:00PM 45.1823 -125.9233 48° Northeast 571 657 36,200  Level FlightAware ADS-B (KPFC)
07:01PM 45.2138 -125.8613 62° Northeast 588 677 36,200 -900 Level FlightAware ADS-B (KPFC)
07:01PM 45.2604 -125.7287 64° Northeast 590 679 35,400 -1,860 Descending FlightAware ADS-B (KPFC)
07:01PM 45.2709 -125.6990 64° Northeast 597 687 34,800 -4,800 Descending FlightAware ADS-B
07:02PM 45.2810 -125.5840 123° Southeast 569 655 32,200 -2,160 Descending FlightAware ADS-B (KPFC)
07:03PM 45.2136 -125.4743 132° Southeast 559 643 32,300 780 Climbing FlightAware ADS-B (KPFC)
07:03PM 45.1437 -125.3642 132° Southeast 556 640 33,300 1,440 Climbing FlightAware ADS-B (KPFC)
07:04PM 45.0728 -125.2537 133° Southeast 554 638 34,300 1,260 Climbing FlightAware ADS-B
07:05PM 45.0027 -125.1460 133° Southeast 558 642 35,100 960 Climbing FlightAware ADS-B (KPFC)
07:05PM 44.9353 -125.0435 132° Southeast 556 640 35,600 900 Climbing FlightAware ADS-B (KPFC)
07:06PM 44.8696 -124.9588 141° Southeast 549 632 36,200 840 Climbing FlightAware ADS-B
07:06PM 44.8117 -124.9117 159° South 526 605 36,500 120 Climbing FlightAware ADS-B (KPFC)
07:07PM 44.7131 -124.8762 167° South 524 603 36,400 -1,320 Descending FlightAware ADS-B (KPFC)
07:07PM 44.6510 -124.8567 169° South 511 588 35,000 -3,300 Descending FlightAware ADS-B
07:08PM 44.6211 -124.8521 184° South 486 559 34,200 -6,600 Descending FlightAware ADS-B (KPFC)
07:08PM 44.5979 -124.8693 238° Southwest 422 486 32,600 -1,740 Descending FlightAware ADS-B
07:08PM 44.5658 -124.9655 247° West 418 481 32,700 1,140 Climbing FlightAware ADS-B (KPFC)
07:09PM 44.5357 -125.0614 247° West 411 473 34,100 1,500 Climbing FlightAware ADS-B (KPFC)
07:10PM 44.4988 -125.1830 248° West 417 480 34,900 1,140 Climbing FlightAware ADS-B (KPFC)
07:11PM 44.4698 -125.2802 247° West 410 472 35,800 1,080 Climbing FlightAware ADS-B (KPFC)
07:11PM 44.4443 -125.3650 247° West 411 473 36,300 720 Climbing FlightAware ADS-B (KPFC)
07:12PM 44.4211 -125.4422 247° West 417 480 36,600 240 Climbing FlightAware ADS-B
07:12PM 44.3964 -125.5242 248° West 428 493 36,600 -1,380 Level FlightAware ADS-B (KPFC)
07:13PM 44.3656 -125.6287 248° West 415 478 34,900 -3,720 Descending FlightAware ADS-B (KPFC)
07:13PM 44.3551 -125.6703 266° West 420 483 32,900 -4,800 Descending FlightAware ADS-B (KPFC)
07:14PM 44.3709 -125.7229 314° West 439 505 31,700 -780 Descending FlightAware ADS-B (KPFC)
07:14PM 44.3970 -125.7598 315° West 438 504 32,400 1,500 Climbing FlightAware ADS-B (KPFC)
07:14PM 44.4302 -125.8016 326° Northwest 455 524 32,700 780 Climbing FlightAware ADS-B (KPFC)
07:15PM 44.5051 -125.8634 332° Northwest 474 545 33,200 960 Climbing FlightAware ADS-B (KPFC)
07:16PM 44.5832 -125.9129 337° Northwest 484 557 34,000 1,200 Climbing FlightAware ADS-B (KPFC)
07:16PM 44.6710 -125.9633 338° Northwest 486 559 34,800 720 Climbing FlightAware ADS-B (KPFC)
07:17PM 44.7539 -126.0089 339° North 494 568 35,000 -1,320 Climbing FlightAware ADS-B (KPFC)
07:18PM 44.8351 -126.0521 348° North 494 568 33,100 -4,740 Descending FlightAware ADS-B (KPFC)
07:18PM 44.8844 -126.0346 44° Northeast 576 663 30,300 -2,100 Descending FlightAware ADS-B (KPFC)
07:19PM 44.9603 -125.9261 46° Northeast 574 661 31,000 1,800 Climbing FlightAware ADS-B (KPFC)
07:19PM 45.0314 -125.8207 47° Northeast 562 647 32,700 2,700 Climbing FlightAware ADS-B (KPFC)
07:20PM 45.1015 -125.7139 47° Northeast 545 627 34,600 1,920 Climbing FlightAware ADS-B (KPFC)
07:21PM 45.1679 -125.6048 52° Northeast 555 639 35,300 900 Climbing FlightAware ADS-B (KPFC)
07:21PM 45.2293 -125.4871 54° Northeast 567 652 35,800 360 Climbing FlightAware ADS-B (KPFC)
07:22PM 45.2842 -125.3785 55° Northeast 583 671 35,800 60 Level FlightAware ADS-B (KPFC)
07:23PM 45.3467 -125.2529 55° Northeast 587 676 35,900 -2,640 Climbing FlightAware ADS-B (KPFC)
07:23PM 45.4133 -125.0784 79° East 593 682 31,800 -2,400 Descending FlightAware ADS-B (KPFC)
07:24PM 45.4298 -124.9545 80° East 592 681 32,600 1,260 Climbing FlightAware ADS-B (KPFC)
07:24PM 45.4418 -124.8359 88° East 597 687 33,200 1,020 Climbing FlightAware ADS-B
07:25PM 45.4427 -124.8022 90° East 596 686 33,300 1,200 Climbing FlightAware ADS-B (KPFC)
07:25PM 45.4413 -124.6760 92° East 595 685 34,000 1,380 Climbing FlightAware ADS-B
07:25PM 45.4415 -124.6803 96° East 594 684 34,100 2,640 Climbing FlightAware ADS-B
07:25PM 45.4376 -124.6420 101° East 589 678 34,400 3,000 Climbing FlightAware ADS-B
07:25PM 45.4294 -124.6016 109° East 573 659 35,000 2,580 Climbing FlightAware ADS-B (KPFC)
07:26PM 45.4247 -124.5840 110° East 574 661 35,100 960 Climbing FlightAware ADS-B
07:26PM 45.4097 -124.5410 119° Southeast 567 652 35,300 780 Climbing FlightAware ADS-B
07:26PM 45.4065 -124.5337 121° Southeast 560 644 35,300 540 Level FlightAware ADS-B (KPFC)
07:26PM 45.3935 -124.5080 128° Southeast 558 642 35,400 900 Climbing FlightAware ADS-B
07:26PM 45.3899 -124.5018 134° Southeast 552 635 35,500 360 Climbing FlightAware ADS-B
07:26PM 45.3650 -124.4680 140° Southeast 545 627 35,500  Level FlightAware ADS-B
07:27PM 45.3179 -124.4164 143° Southeast 550 633 35,500  Level FlightAware ADS-B (KPFC)
07:27PM 45.3041 -124.4020 143° Southeast 551 634 35,500 -2,100 Level FlightAware ADS-B
07:27PM 45.2479 -124.3410 144° Southeast 547 629 34,300 -2,820 Descending FlightAware ADS-B
07:27PM 45.2403 -124.3341 149° Southeast 541 623 34,000 -6,720 Descending FlightAware ADS-B
07:28PM 45.1938 -124.3358 210° Southwest 452 520 31,500 -1,620 Descending FlightAware ADS-B (KPFC)
07:28PM 45.1303 -124.3893 212° Southwest 440 506 32,500 1,380 Climbing FlightAware ADS-B (KPFC)
07:29PM 45.0530 -124.4585 217° Southwest 442 509 33,400 1,140 Climbing FlightAware ADS-B (KPFC)
07:29PM 45.0317 -124.4848 228° Southwest 431 496 33,700 1,020 Climbing FlightAware ADS-B (KPFC)
07:30PM 45.0022 -124.5414 244° Southwest 420 483 34,100 1,020 Climbing FlightAware ADS-B (KPFC)
07:30PM 44.9777 -124.6404 253° West 415 478 34,800 780 Climbing FlightAware ADS-B (KPFC)
07:31PM 44.9556 -124.7438 254° West 417 480 35,200 -300 Climbing FlightAware ADS-B (KPFC)
07:32PM 44.9351 -124.8459 254° West 414 476 34,400 -3,000 Descending FlightAware ADS-B (KPFC)
07:32PM 44.9276 -124.9020 281° West 423 487 32,200 -7,020 Descending FlightAware ADS-B (KPFC)
07:32PM 44.9306 -124.9157 296° West 432 497 31,600 -9,300 Descending FlightAware ADS-B (KPFC)
07:32PM 44.9611 -124.9413 345° North 501 577 29,100 -540 Descending FlightAware ADS-B (KPFC)
07:33PM 45.0464 -124.9703 347° North 483 556 31,100 1,680 Climbing FlightAware ADS-B (KPFC)
07:34PM 45.1374 -124.9984 348° North 502 578 31,400 1,080 Climbing FlightAware ADS-B (KPFC)
07:34PM 45.2089 -125.0192 349° North 489 563 32,400 2,160 Climbing FlightAware ADS-B (KPFC)
07:35PM 45.2981 -125.0415 350° North 487 560 34,000 1,740 Climbing FlightAware ADS-B (KPFC)
07:35PM 45.3684 -125.0587 350° North 486 559 34,500 840 Climbing FlightAware ADS-B (KPFC)
07:36PM 45.4477 -125.0785 350° North 498 573 35,000 420 Climbing FlightAware ADS-B (KPFC)
07:37PM 45.5351 -125.1012 349° North 503 579 35,100 240 Climbing FlightAware ADS-B (KPFC)
07:37PM 45.5547 -125.1060 349° North 503 579 35,200 360 Climbing FlightAware ADS-B
07:37PM 45.6135 -125.1227 349° North 503 579 35,300 180 Climbing FlightAware ADS-B
07:37PM 45.6236 -125.1260 349° North 503 579 35,300  Level FlightAware ADS-B
07:37PM 45.6592 -125.1350 351° North 504 580 35,300 660 Level FlightAware ADS-B
07:38PM 45.6839 -125.1390 357° North 509 586 35,600 1,980 Climbing FlightAware ADS-B
07:38PM 45.6867 -125.1390 358° North 502 578 35,700 3,600 Climbing FlightAware ADS-B (KPFC)
07:38PM 45.6961 -125.1390 North 512 589 35,900 1,260 Climbing FlightAware ADS-B
07:38PM 45.7210 -125.1360 North 525 604 36,000  Climbing FlightAware ADS-B
07:38PM 45.7268 -125.1346 North 527 606 35,900 -600 Descending FlightAware ADS-B (KPFC)
07:38PM 45.7739 -125.1240 10° North 536 617 35,800 -480 Descending FlightAware ADS-B
07:38PM 45.7954 -125.1170 14° North 544 626 35,700  Descending FlightAware ADS-B
07:39PM 45.8158 -125.1090 19° North 550 633 35,800 480 Climbing FlightAware ADS-B
07:39PM 45.8182 -125.1073 22° Northeast 554 638 35,800 -1,380 Level FlightAware ADS-B (KPFC)
07:39PM 45.8874 -125.0630 25° Northeast 573 659 35,100 -1,500 Descending FlightAware ADS-B
07:39PM 45.9096 -125.0480 26° Northeast 570 656 34,900 -780 Descending FlightAware ADS-B (KPFC)
07:39PM 45.9259 -125.0370 26° Northeast 579 666 34,900  Level FlightAware ADS-B
07:39PM 45.9363 -125.0290 31° Northeast 582 670 34,900 -600 Level FlightAware ADS-B
07:39PM 45.9516 -125.0130 38° Northeast 589 678 34,800 -600 Descending FlightAware ADS-B
07:40PM 45.9584 -125.0040 45° Northeast 594 684 34,800 960 Level FlightAware ADS-B
07:40PM 45.9592 -125.0023 51° Northeast 598 688 34,900 1,500 Climbing FlightAware ADS-B (KPFC)
07:40PM 45.9650 -124.9920 54° Northeast 599 689 34,900 -3,000 Level FlightAware ADS-B
07:40PM 45.9713 -124.9750 64° Northeast 602 693 34,600 -4,020 Descending FlightAware ADS-B
07:40PM 45.9746 -124.9590 74° East 601 692 34,300 -2,280 Descending FlightAware ADS-B
07:40PM 45.9755 -124.9430 85° East 593 682 34,300  Level FlightAware ADS-B
07:40PM 45.9756 -124.9378 91° East 589 678 34,300 960 Level FlightAware ADS-B (KPFC)
07:40PM 45.9706 -124.8240 94° East 587 676 34,800 1,080 Climbing FlightAware ADS-B
07:40PM 45.9701 -124.8155 94° East 583 671 34,900 1,920 Climbing FlightAware ADS-B
07:41PM 45.9639 -124.7070 96° East 579 666 35,800 1,740 Climbing FlightAware ADS-B
07:41PM 45.9627 -124.6905 96° East 580 667 35,800 -1,260 Level FlightAware ADS-B (KPFC)
07:42PM 45.9528 -124.5619 97° East 605 696 34,900 -1,320 Descending FlightAware ADS-B (KPFC)
07:42PM 45.9396 -124.4617 118° Southeast 590 679 34,500 -2,340 Descending FlightAware ADS-B (KPFC)
07:42PM 45.9119 -124.4180 140° Southeast 556 640 33,600 -2,700 Descending FlightAware ADS-B
07:42PM 45.8999 -124.4046 141° Southeast 533 613 33,600 780 Level FlightAware ADS-B (KPFC)
07:43PM 45.8552 -124.3530 141° Southeast 524 603 34,000 840 Climbing FlightAware ADS-B
07:43PM 45.8420 -124.3376 141° Southeast 527 606 34,100 780 Climbing FlightAware ADS-B
07:43PM 45.7978 -124.2850 140° Southeast 534 615 34,400 720 Climbing FlightAware ADS-B
07:43PM 45.7879 -124.2734 139° Southeast 532 612 34,400 480 Level FlightAware ADS-B (KPFC)
07:44PM 45.7516 -124.2280 138° Southeast 547 629 34,600 780 Climbing FlightAware ADS-B
07:44PM 45.7350 -124.2040 133° Southeast 553 636 34,800 1,380 Climbing FlightAware ADS-B
07:44PM 45.7284 -124.1931 128° Southeast 553 636 34,900 1,680 Climbing FlightAware ADS-B (KPFC)
07:44PM 45.7243 -124.1860 127° Southeast 561 646 35,000 420 Climbing FlightAware ADS-B
07:44PM 45.7099 -124.1500 116° Southeast 569 655 35,000  Level FlightAware ADS-B
07:44PM 45.7076 -124.1423 111° Southeast 573 659 35,000  Level FlightAware ADS-B
07:44PM 45.7012 -124.1140 105° East 576 663 35,000  Level FlightAware ADS-B
07:44PM 45.7008 -124.1113 100° East 579 666 35,000  Level FlightAware ADS-B (KPFC)
07:44PM 45.6981 -124.0890 99° East 580 667 35,000  Level FlightAware ADS-B
07:44PM 45.6973 -124.0520 88° East 582 670 35,000  Level FlightAware ADS-B
07:45PM 45.7071 -123.9880 71° East 578 665 35,000  Level FlightAware ADS-B
07:45PM 45.7075 -123.9865 69° East 576 663 35,000  Level FlightAware ADS-B
07:45PM 45.7137 -123.9670 63° Northeast 572 658 35,000  Level FlightAware ADS-B
07:45PM 45.7207 -123.9500 58° Northeast 567 652 35,000  Level FlightAware ADS-B
07:45PM 45.7277 -123.9360 53° Northeast 563 648 35,000  Level FlightAware ADS-B
07:45PM 45.7368 -123.9210 47° Northeast 556 640 35,000  Level FlightAware ADS-B
07:45PM 45.7460 -123.9090 43° Northeast 550 633 35,000  Level FlightAware ADS-B
07:45PM 45.7552 -123.8976 40° Northeast 546 628 35,000  Level FlightAware ADS-B (KPFC)
07:45PM 45.7673 -123.8840 38° Northeast 542 624 35,000  Level FlightAware ADS-B
07:46PM 45.7858 -123.8660 32° Northeast 534 615 35,000  Level FlightAware ADS-B
07:46PM 45.7879 -123.8640 29° Northeast 528 608 35,000  Level FlightAware ADS-B (KPFC)
07:46PM 45.8039 -123.8520 26° Northeast 524 603 35,000  Level FlightAware ADS-B
07:46PM 45.8188 -123.8430 21° North 515 593 35,000  Level FlightAware ADS-B
07:46PM 45.8318 -123.8370 17° North 507 583 35,000  Level FlightAware ADS-B
07:46PM 45.8404 -123.8336 14° North 502 578 35,000  Level FlightAware ADS-B (KPFC)
07:46PM 45.8471 -123.8320 12° North 498 573 35,000  Level FlightAware ADS-B
07:46PM 45.8557 -123.8300 North 493 567 35,000  Level FlightAware ADS-B
07:46PM 45.8727 -123.8270 North 483 556 35,000  Level FlightAware ADS-B
07:46PM 45.8860 -123.8270 359° North 475 547 35,000  Level FlightAware ADS-B
07:47PM 45.9007 -123.8284 353° North 466 536 35,000  Level FlightAware ADS-B (CYVR)
07:47PM 45.9514 -123.8380 353° North 467 537 35,000  Level FlightAware ADS-B
07:47PM 45.9845 -123.8439 352° North 470 541 35,000 -240 Level FlightAware ADS-B (CYVR)
07:47PM 46.0160 -123.8500 352° North 473 544 34,900 -1,380 Descending FlightAware ADS-B
07:48PM 46.0642 -123.8599 352° North 474 545 34,300 -1,800 Descending FlightAware ADS-B
07:48PM 46.0798 -123.8630 352° North 474 545 34,000 -3,300 Descending FlightAware ADS-B
07:48PM 46.0894 -123.8640 355° North 478 550 33,700 -4,020 Descending FlightAware ADS-B
07:48PM 46.1082 -123.8650 North 487 560 33,200 -3,540 Descending FlightAware ADS-B
07:48PM 46.1141 -123.8651 North 490 564 33,000 -3,600 Descending FlightAware ADS-B
07:48PM 46.1291 -123.8630 North 499 574 32,600 -4,620 Descending FlightAware ADS-B
07:48PM 46.1466 -123.8590 12° North 510 587 32,000 -4,800 Descending FlightAware ADS-B
07:48PM 46.1536 -123.8566 14° North 514 592 31,800 -3,360 Descending FlightAware ADS-B (CYVR)
07:48PM 46.1673 -123.8510 18° North 520 598 31,500 -3,240 Descending FlightAware ADS-B
07:49PM 46.1835 -123.8420 23° Northeast 525 604 31,100 -3,240 Descending FlightAware ADS-B
07:49PM 46.1962 -123.8326 28° Northeast 529 609 30,800 -2,700 Descending FlightAware ADS-B (CYVR)
07:49PM 46.2030 -123.8270 30° Northeast 529 609 30,700 -1,800 Descending FlightAware ADS-B
07:49PM 46.2175 -123.8140 35° Northeast 531 611 30,500 -1,800 Descending FlightAware ADS-B
07:49PM 46.2326 -123.7968 40° Northeast 531 611 30,200 -2,040 Descending FlightAware ADS-B (CYVR)
07:49PM 46.2742 -123.7470 40° Northeast 525 604 29,500 -2,220 Descending FlightAware ADS-B
07:49PM 46.2891 -123.7288 40° Northeast 521 600 29,100 -2,160 Descending FlightAware ADS-B (CYVR)
07:50PM 46.3297 -123.6800 40° Northeast 513 590 28,400 -2,040 Descending FlightAware ADS-B
07:50PM 46.3406 -123.6667 40° Northeast 508 585 28,100 -2,040 Descending FlightAware ADS-B (CYVR)
07:50PM 46.3837 -123.6150 40° Northeast 501 577 27,400 -2,160 Descending FlightAware ADS-B
07:50PM 46.4011 -123.5945 40° Northeast 497 572 27,000 -2,220 Descending FlightAware ADS-B (CYVR)
07:51PM 46.4373 -123.5510 40° Northeast 492 566 26,300 -1,980 Descending FlightAware ADS-B
07:51PM 46.4673 -123.5152 40° Northeast 485 558 25,800 -2,040 Descending FlightAware ADS-B (KPFC)
07:51PM 46.4901 -123.4880 40° Northeast 492 566 25,300 -2,220 Descending FlightAware ADS-B
07:52PM 46.5219 -123.4498 40° Northeast 489 563 24,600 -1,980 Descending FlightAware ADS-B (CYVR)
07:52PM 46.5431 -123.4240 40° Northeast 486 559 24,300 -2,040 Descending FlightAware ADS-B
07:52PM 46.5738 -123.3871 40° Northeast 477 549 23,600 -2,040 Descending FlightAware ADS-B (CYVR)
07:52PM 46.5941 -123.3630 40° Northeast 473 544 23,300 -1,980 Descending FlightAware ADS-B
07:53PM 46.6403 -123.3066 40° Northeast 466 536 22,300 -2,040 Descending FlightAware ADS-B (CYVR)
07:53PM 46.6446 -123.3010 40° Northeast 466 536 22,300 -2,040 Level FlightAware ADS-B
07:53PM 46.6881 -123.2486 40° Northeast 461 531 21,300 -1,980 Descending FlightAware ADS-B (CYVR)
07:53PM 46.6949 -123.2400 40° Northeast 461 531 21,300 -1,920 Level FlightAware ADS-B
07:54PM 46.7231 -123.2058 41° Northeast 449 517 20,700 -2,040 Descending FlightAware ADS-B (KPFC)
07:54PM 46.7440 -123.1810 40° Northeast 449 517 20,300 -1,920 Descending FlightAware ADS-B
07:54PM 46.7734 -123.1450 40° Northeast 441 507 19,700 -2,040 Descending FlightAware ADS-B (KPFC)
07:54PM 46.7915 -123.1230 40° Northeast 437 503 19,300 -1,980 Descending FlightAware ADS-B
07:55PM 46.8352 -123.0697 41° Northeast 421 484 18,400 -1,980 Descending FlightAware ADS-B (KPFC)
07:55PM 46.8382 -123.0660 40° Northeast 427 491 18,300 -1,740 Descending FlightAware ADS-B
07:55PM 46.8833 -123.0110 40° Northeast 410 472 17,500 -1,020 Descending FlightAware ADS-B
07:56PM 46.9252 -122.9590 41° Northeast 380 437 17,300 -300 Descending FlightAware ADS-B
07:56PM 46.9379 -122.9430 41° Northeast 367 422 17,300 -420 Level FlightAware ADS-B (KPFC)
07:56PM 46.9648 -122.9100 40° Northeast 366 421 17,100 -840 Descending FlightAware ADS-B
07:57PM 46.9848 -122.8857 41° Northeast 358 412 16,800 -1,200 Descending FlightAware ADS-B (KPFC)
07:57PM 46.9978 -122.8690 41° Northeast 360 414 16,600 -1,500 Descending FlightAware ADS-B
07:57PM 47.0311 -122.8270 41° Northeast 356 410 15,900 -1,620 Descending FlightAware ADS-B
07:57PM 47.0345 -122.8224 42° Northeast 350 403 15,800 -1,200 Descending FlightAware ADS-B (KPFC)
07:58PM 47.0673 -122.7800 41° Northeast 334 384 15,300 -1,140 Descending FlightAware ADS-B
07:58PM 47.0723 -122.7732 42° Northeast 325 374 15,200 -3,240 Descending FlightAware ADS-B (KPFC)
07:58PM 47.1022 -122.7350 41° Northeast 333 383 13,700 -3,480 Descending FlightAware ADS-B
07:58PM 47.1193 -122.7137 40° Northeast 335 386 12,900 -3,360 Descending FlightAware ADS-B (KPFC)
07:59PM 47.1310 -122.6990 41° Northeast 335 386 12,300 -3,360 Descending FlightAware ADS-B
07:59PM 47.1530 -122.6710 40° Northeast 334 384 11,300 -3,180 Descending FlightAware ADS-B
07:59PM 47.1583 -122.6650 36° Northeast 330 380 11,100 -2,580 Descending FlightAware ADS-B
07:59PM 47.1622 -122.6610 32° Northeast 327 376 11,000 -2,040 Descending FlightAware ADS-B
07:59PM 47.1662 -122.6580 27° Northeast 325 374 10,900 -2,700 Descending FlightAware ADS-B
07:59PM 47.1737 -122.6540 18° North 319 367 10,600 -2,700 Descending FlightAware ADS-B
07:59PM 47.1791 -122.6520 11° North 317 365 10,500 -1,800 Descending FlightAware ADS-B
07:59PM 47.1890 -122.6510 North 317 365 10,300 -660 Descending FlightAware ADS-B
08:00PM 47.2323 -122.6480 North 300 345 10,100 -240 Descending FlightAware ADS-B
08:00PM 46.7934 -123.1208 40° Northeast 364 419 10,100  Level FlightAware ADS-B (CYVR)
08:00PM 47.2727 -122.6460 North 275 316 10,100 -840 Level FlightAware ADS-B
08:01PM 47.2916 -122.6450 North 267 307 9,800 -1,800 Descending FlightAware ADS-B
08:01PM 47.3106 -122.6440 North 266 306 9,200 -2,340 Descending FlightAware ADS-B
08:01PM 47.3295 -122.6430 North 265 305 8,600 -2,280 Descending FlightAware ADS-B
08:01PM 47.3459 -122.6420 North 257 296 8,100 -2,160 Descending FlightAware ADS-B
08:02PM 47.3598 -122.6420 North 252 290 7,700 -2,400 Descending FlightAware ADS-B
08:02PM 47.3730 -122.6410 North 250 288 7,200 -2,700 Descending FlightAware ADS-B
08:02PM 47.3911 -122.6410 North 254 292 6,500 -2,580 Descending FlightAware ADS-B
08:02PM 47.3956 -122.6410 360° North 256 295 6,400 -1,320 Descending FlightAware ADS-B
08:02PM 47.4136 -122.6410 359° North 253 291 6,100 -720 Descending FlightAware ADS-B
08:03PM 47.4273 -122.6420 359° North 243 280 6,100  Level FlightAware ADS-B
08:03PM 47.4439 -122.6420 359° North 232 267 6,100  Level FlightAware ADS-B
08:03PM 47.4601 -122.6430 359° North 230 265 6,100 -240 Level FlightAware ADS-B
08:03PM 47.4761 -122.6440 359° North 230 265 6,000 -840 Descending FlightAware ADS-B
08:04PM 47.4928 -122.6440 358° North 232 267 5,700 -1,140 Descending FlightAware ADS-B
08:04PM 47.5057 -122.6450 359° North 231 266 5,500 -1,200 Descending FlightAware ADS-B
08:04PM 47.5089 -122.6450 North 231 266 5,400 -1,020 Descending FlightAware ADS-B
08:04PM 47.5121 -122.6450 North 231 266 5,400 -720 Level FlightAware ADS-B
08:04PM 47.5182 -122.6440 North 230 265 5,300 -1,200 Descending FlightAware ADS-B
08:04PM 47.5342 -122.6410 North 228 262 5,000 -1,080 Descending FlightAware ADS-B
08:04PM 47.5426 -122.6390 North 228 262 4,900 -1,020 Descending FlightAware ADS-B
08:05PM 47.5588 -122.6360 North 228 262 4,600 -1,140 Descending FlightAware ADS-B
08:05PM 47.5751 -122.6320 North 229 264 4,300 -1,440 Descending FlightAware ADS-B
08:05PM 47.5809 -122.6300 14° North 229 264 4,100 -1,380 Descending FlightAware ADS-B
08:05PM 47.5850 -122.6290 18° North 229 264 4,100 -780 Level FlightAware ADS-B
08:05PM 47.5890 -122.6260 20° North 228 262 4,000 -1,200 Descending FlightAware ADS-B
08:05PM 47.5950 -122.6230 23° Northeast 227 261 3,900 -1,140 Descending FlightAware ADS-B
08:05PM 47.6045 -122.6170 24° Northeast 225 259 3,700 -1,140 Descending FlightAware ADS-B
08:06PM 47.6151 -122.6090 25° Northeast 225 259 3,500 -1,140 Descending FlightAware ADS-B
08:06PM 47.6296 -122.5990 26° Northeast 223 257 3,200 -1,200 Descending FlightAware ADS-B
08:06PM 47.6440 -122.5890 26° Northeast 223 257 2,900 -1,020 Descending FlightAware ADS-B
08:06PM 47.6614 -122.5740 26° Northeast 221 254 2,600 -1,020 Descending FlightAware ADS-B
08:07PM 47.6676 -122.5520 77° East 205 236 2,300 -660 Descending FlightAware ADS-B
08:07PM 47.6660 -122.5360 102° East 198 228 2,300  Level FlightAware ADS-B
08:07PM 47.6648 -122.5290 103° East 198 228 2,300  Level FlightAware ADS-B
08:07PM 47.6635 -122.5210 105° East 198 228 2,300  Level FlightAware ADS-B
08:07PM 47.6616 -122.5120 108° East 199 229 2,300 -420 Level FlightAware ADS-B
08:07PM 47.6589 -122.5000 110° East 201 231 2,200 -420 Descending FlightAware ADS-B
08:07PM 47.6567 -122.4930 114° Southeast 199 229 2,200 -300 Level FlightAware ADS-B
08:08PM 47.6496 -122.4730 118° Southeast 194 223 2,100 -300 Descending FlightAware ADS-B
08:08PM 47.6353 -122.4390 118° Southeast 194 223 2,000 -120 Descending FlightAware ADS-B
08:09PM 47.6250 -122.4150 121° Southeast 172 198 2,000  Level FlightAware ADS-B
08:09PM 47.6175 -122.3970 122° Southeast 173 199 2,000  Level FlightAware ADS-B
08:09PM 47.6124 -122.3850 123° Southeast 171 197 2,000 -240 Level FlightAware ADS-B
08:09PM 47.6051 -122.3710 125° Southeast 167 192 1,900 -600 Descending FlightAware ADS-B
08:10PM 47.6026 -122.3680 135° Southeast 154 177 1,800 -1,200 Descending FlightAware ADS-B
08:10PM 47.5944 -122.3580 141° Southeast 147 169 1,500 -1,080 Descending FlightAware ADS-B
08:10PM 47.5872 -122.3510 146° Southeast 143 165 1,300 -900 Descending FlightAware ADS-B
08:11PM 47.5519 -122.3214 146° Southeast 142 163 300 15,300 Descending Seattle Center
08:12PM 47.5153 -122.2878 148° Southeast 142 163 35,000 34,080 Climbing Seattle Center